Time;durP1;ratioP1;P1;durP2;ratioP2;P2;SDS_P1;SDS_P2;PMS_P1;PMS_P2;Temp;Humidity;BMP_temperature;BMP_pressure;BME280_temperature;BME280_humidity;BME280_pressure;Samples;Min_cycle;Max_cycle;Signal;HPM_P1;HPM_P2
2023/07/18 00:00:32;;;;;;;6.63;1.80;;;16.10;71.10;;;;;;4908004;29;20056;-84
2023/07/18 00:02:59;;;;;;;9.52;2.30;;;16.10;71.10;;;;;;4904716;29;20054;-84
2023/07/18 00:05:25;;;;;;;6.50;1.92;;;16.10;71.10;;;;;;4910838;29;20036;-84
2023/07/18 00:07:51;;;;;;;8.13;2.10;;;16.00;71.20;;;;;;4918277;29;20020;-82
2023/07/18 00:10:19;;;;;;;7.00;1.95;;;15.90;71.20;;;;;;4909604;28;20452;-85
2023/07/18 00:12:45;;;;;;;6.85;2.00;;;15.80;71.30;;;;;;4896829;29;20052;-83
2023/07/18 00:15:12;;;;;;;6.60;2.15;;;15.80;71.40;;;;;;4907856;28;20016;-83
2023/07/18 00:17:39;;;;;;;7.45;1.90;;;15.70;71.40;;;;;;4904896;29;20025;-83
2023/07/18 00:20:12;;;;;;;8.57;2.50;;;15.70;71.80;;;;;;4904546;28;20108;-85
2023/07/18 00:22:42;;;;;;;7.85;2.10;;;15.60;72.10;;;;;;4910626;29;20028;-83
2023/07/18 00:25:16;;;;;;;6.05;2.20;;;15.60;72.60;;;;;;4910369;28;20107;-83
2023/07/18 00:27:51;;;;;;;8.52;2.35;;;15.60;72.40;;;;;;4912893;29;20806;-81
2023/07/18 00:30:17;;;;;;;7.15;2.33;;;15.50;72.40;;;;;;4912160;28;20032;-82
2023/07/18 00:32:44;;;;;;;5.25;2.15;;;15.60;72.50;;;;;;4915705;29;20149;-81
2023/07/18 00:35:14;;;;;;;6.13;2.00;;;15.50;72.60;;;;;;4913160;28;20083;-83
2023/07/18 00:37:41;;;;;;;8.43;2.28;;;15.50;72.90;;;;;;4912753;29;20083;-83
2023/07/18 00:40:11;;;;;;;7.50;2.30;;;15.40;73.20;;;;;;4906557;29;20069;-82
2023/07/18 00:42:38;;;;;;;7.82;2.15;;;15.50;73.00;;;;;;4911345;29;20032;-82
2023/07/18 00:45:05;;;;;;;7.93;2.28;;;15.40;73.00;;;;;;4903608;29;20060;-84
2023/07/18 00:47:37;;;;;;;10.82;2.45;;;15.40;73.20;;;;;;4916143;29;20024;-82
2023/07/18 00:50:14;;;;;;;7.25;2.40;;;15.40;73.20;;;;;;4909876;28;20527;-84
2023/07/18 00:52:44;;;;;;;6.78;2.45;;;15.30;73.30;;;;;;4912674;29;20032;-84
2023/07/18 00:55:10;;;;;;;8.30;2.60;;;15.30;73.50;;;;;;4916522;28;20156;-83
2023/07/18 00:57:41;;;;;;;7.53;2.33;;;15.30;73.50;;;;;;4914837;29;20114;-83
2023/07/18 01:00:11;;;;;;;6.80;2.35;;;15.20;73.60;;;;;;4905949;29;20025;-85
2023/07/18 01:02:38;;;;;;;8.15;2.30;;;15.20;73.70;;;;;;4918084;29;20544;-83
2023/07/18 01:05:04;;;;;;;10.05;2.60;;;15.10;73.90;;;;;;4911679;29;20090;-84
2023/07/18 01:07:30;;;;;;;7.28;2.30;;;15.10;74.10;;;;;;4917097;29;20034;-84
2023/07/18 01:10:17;;;;;;;7.97;2.55;;;15.10;74.30;;;;;;4919344;29;20114;-84
2023/07/18 01:12:44;;;;;;;8.32;2.30;;;15.10;74.20;;;;;;4916699;29;20044;-83
2023/07/18 01:15:13;;;;;;;7.15;2.40;;;15.10;74.40;;;;;;4905027;28;20031;-84
2023/07/18 01:17:44;;;;;;;5.95;2.25;;;15.00;74.50;;;;;;4901331;29;20056;-84
2023/07/18 01:20:33;;;;;;;7.35;2.40;;;15.00;74.60;;;;;;4907927;28;20028;-84
2023/07/18 01:23:03;;;;;;;7.88;2.70;;;14.90;74.70;;;;;;4909308;29;20339;-84
2023/07/18 01:25:30;;;;;;;8.10;2.85;;;14.80;75.20;;;;;;4908572;28;20399;-82
2023/07/18 01:27:57;;;;;;;9.18;2.30;;;14.80;75.40;;;;;;4907169;29;20597;-83
2023/07/18 01:30:24;;;;;;;8.35;2.65;;;14.80;75.40;;;;;;4908103;29;20761;-83
2023/07/18 01:32:52;;;;;;;11.52;2.70;;;14.80;75.40;;;;;;4916901;29;20130;-85
2023/07/18 01:35:20;;;;;;;7.65;2.88;;;14.80;75.50;;;;;;4916515;28;20139;-83
2023/07/18 01:37:46;;;;;;;8.38;2.53;;;14.80;75.50;;;;;;4906588;29;20059;-83
2023/07/18 01:40:15;;;;;;;6.82;2.40;;;14.80;75.60;;;;;;4902237;29;20054;-83
2023/07/18 01:42:45;;;;;;;6.07;2.50;;;14.70;75.60;;;;;;4911330;29;20545;-82
2023/07/18 01:45:11;;;;;;;8.02;2.88;;;14.70;75.70;;;;;;4916680;29;20139;-84
2023/07/18 01:47:38;;;;;;;7.68;2.75;;;14.60;75.80;;;;;;4917475;29;20031;-83
2023/07/18 01:50:05;;;;;;;9.73;3.50;;;14.60;75.70;;;;;;4917067;29;20032;-83
2023/07/18 01:52:34;;;;;;;6.75;2.80;;;14.70;76.00;;;;;;4914423;29;20024;-83
2023/07/18 01:55:03;;;;;;;6.53;2.72;;;14.60;76.10;;;;;;4913502;28;20048;-82
2023/07/18 01:57:35;;;;;;;10.75;2.90;;;14.60;76.00;;;;;;4912043;29;20500;-84
2023/07/18 02:00:01;;;;;;;8.02;2.90;;;14.60;76.00;;;;;;4919592;28;20032;-84
2023/07/18 02:02:28;;;;;;;8.70;3.22;;;14.60;76.30;;;;;;4906447;29;20082;-84
2023/07/18 02:04:55;;;;;;;7.03;2.40;;;14.60;76.20;;;;;;4905166;29;20166;-83
2023/07/18 02:07:22;;;;;;;10.85;3.10;;;14.60;76.30;;;;;;4907955;29;20043;-84
2023/07/18 02:09:49;;;;;;;6.50;2.50;;;14.60;76.50;;;;;;4908190;29;20037;-84
2023/07/18 02:12:16;;;;;;;10.05;3.08;;;14.50;76.60;;;;;;4905308;28;20504;-84
2023/07/18 02:14:42;;;;;;;8.60;2.95;;;14.50;76.70;;;;;;4910220;29;20032;-83
2023/07/18 02:17:08;;;;;;;8.48;2.80;;;14.40;77.10;;;;;;4911946;28;20090;-84
2023/07/18 02:19:37;;;;;;;9.95;2.90;;;14.40;77.10;;;;;;4911114;29;20055;-85
2023/07/18 02:22:03;;;;;;;10.75;3.05;;;14.30;77.40;;;;;;4907010;28;20513;-85
2023/07/18 02:24:30;;;;;;;7.40;2.50;;;14.30;77.50;;;;;;4908969;29;20041;-83
2023/07/18 02:26:57;;;;;;;10.48;3.10;;;14.30;77.60;;;;;;4907106;28;20100;-84
2023/07/18 02:29:22;;;;;;;8.68;3.05;;;14.30;77.70;;;;;;4904338;29;20432;-84
2023/07/18 02:31:48;;;;;;;6.88;2.70;;;14.20;77.90;;;;;;4907765;28;20598;-83
2023/07/18 02:34:14;;;;;;;8.55;3.00;;;14.20;78.00;;;;;;4904625;29;20036;-83
2023/07/18 02:36:40;;;;;;;10.13;3.05;;;14.20;77.90;;;;;;4909957;28;20597;-83
2023/07/18 02:39:08;;;;;;;7.15;2.88;;;14.20;78.10;;;;;;4909785;29;20110;-83
2023/07/18 02:41:37;;;;;;;9.88;3.10;;;14.10;78.20;;;;;;4917785;29;20044;-83
2023/07/18 02:44:04;;;;;;;9.05;3.55;;;14.10;78.40;;;;;;4920755;29;20472;-84
2023/07/18 02:46:30;;;;;;;7.57;3.00;;;14.10;78.50;;;;;;4911069;29;20044;-83
2023/07/18 02:48:55;;;;;;;7.93;2.97;;;14.10;78.50;;;;;;4917094;29;20393;-82
2023/07/18 02:51:21;;;;;;;9.35;3.20;;;14.10;78.70;;;;;;4906142;28;20041;-83
2023/07/18 02:53:49;;;;;;;9.80;3.13;;;14.10;78.70;;;;;;4902508;29;20440;-84
2023/07/18 02:56:15;;;;;;;11.00;3.10;;;14.10;78.70;;;;;;4910282;28;20038;-84
2023/07/18 02:58:41;;;;;;;10.93;3.72;;;14.00;78.70;;;;;;4911181;29;20090;-84
2023/07/18 03:01:08;;;;;;;10.90;3.50;;;14.00;78.80;;;;;;4912774;28;20040;-84
2023/07/18 03:03:40;;;;;;;10.73;3.10;;;13.90;79.10;;;;;;4903888;29;20044;-83
2023/07/18 03:06:05;;;;;;;9.07;3.40;;;13.90;79.40;;;;;;4907492;28;20033;-83
2023/07/18 03:08:36;;;;;;;10.32;3.17;;;13.90;79.40;;;;;;4909391;29;20442;-84
2023/07/18 03:11:03;;;;;;;7.72;3.05;;;14.00;79.50;;;;;;4909212;28;20050;-83
2023/07/18 03:13:29;;;;;;;8.50;3.30;;;13.90;79.60;;;;;;4902495;29;20039;-86
2023/07/18 03:15:55;;;;;;;8.98;3.20;;;13.90;79.70;;;;;;4919918;28;20479;-84
2023/07/18 03:18:21;;;;;;;10.68;3.28;;;13.90;80.00;;;;;;4913676;29;20119;-84
2023/07/18 03:20:47;;;;;;;11.45;3.63;;;13.90;80.10;;;;;;4907706;29;20036;-83
2023/07/18 03:23:13;;;;;;;9.88;3.40;;;13.90;80.00;;;;;;4912041;29;20107;-83
2023/07/18 03:25:39;;;;;;;8.98;3.35;;;13.90;80.00;;;;;;4903875;29;20036;-83
2023/07/18 03:28:04;;;;;;;12.27;3.75;;;13.90;80.10;;;;;;4911083;29;20080;-85
2023/07/18 03:30:30;;;;;;;10.75;3.65;;;13.90;80.10;;;;;;4908427;28;20099;-82
2023/07/18 03:32:56;;;;;;;10.68;3.80;;;13.80;80.30;;;;;;4910433;29;20598;-83
2023/07/18 03:35:22;;;;;;;12.32;4.20;;;13.80;80.50;;;;;;4911809;28;20048;-83
2023/07/18 03:37:48;;;;;;;11.80;4.07;;;13.70;80.50;;;;;;4914607;29;20138;-83
2023/07/18 03:40:16;;;;;;;9.48;3.40;;;13.70;80.80;;;;;;4906773;28;20131;-82
2023/07/18 03:42:43;;;;;;;11.13;3.55;;;13.70;80.90;;;;;;4917901;29;20032;-83
2023/07/18 03:45:10;;;;;;;9.45;3.70;;;13.70;80.80;;;;;;4912579;28;20032;-85
2023/07/18 03:47:37;;;;;;;12.30;4.38;;;13.60;80.80;;;;;;4912074;29;20037;-82
2023/07/18 03:50:03;;;;;;;11.90;3.40;;;13.70;81.00;;;;;;4906157;28;20165;-86
2023/07/18 03:52:29;;;;;;;11.85;3.90;;;13.60;81.10;;;;;;4908993;29;20114;-83
2023/07/18 03:54:54;;;;;;;8.05;2.97;;;13.60;81.00;;;;;;4906223;29;20444;-85
2023/07/18 03:57:20;;;;;;;10.15;3.78;;;13.60;81.20;;;;;;4901281;29;20478;-84
2023/07/18 03:59:46;;;;;;;9.88;4.22;;;13.60;81.20;;;;;;4911192;29;20091;-85
2023/07/18 04:02:14;;;;;;;9.10;3.95;;;13.60;81.20;;;;;;4901040;28;20388;-84
2023/07/18 04:04:41;;;;;;;9.77;3.90;;;13.60;81.10;;;;;;4908544;29;20062;-83
2023/07/18 04:07:07;;;;;;;12.45;4.53;;;13.50;81.40;;;;;;4907028;28;20052;-84
2023/07/18 04:09:34;;;;;;;12.93;4.07;;;13.60;81.40;;;;;;4904260;29;20484;-85
2023/07/18 04:12:00;;;;;;;8.90;3.63;;;13.60;81.50;;;;;;4911471;28;20036;-83
2023/07/18 04:14:26;;;;;;;11.25;4.47;;;13.60;81.60;;;;;;4911976;29;20053;-83
2023/07/18 04:16:52;;;;;;;8.43;3.92;;;13.60;81.50;;;;;;4916068;29;20036;-83
2023/07/18 04:19:18;;;;;;;11.65;4.40;;;13.60;81.40;;;;;;4901737;29;20036;-83
2023/07/18 04:21:44;;;;;;;9.80;3.63;;;13.60;81.40;;;;;;4917166;29;20529;-84
2023/07/18 04:24:10;;;;;;;9.20;3.78;;;13.60;81.40;;;;;;4908750;29;20032;-82
2023/07/18 04:26:36;;;;;;;11.80;3.70;;;13.70;81.30;;;;;;4901652;28;20127;-82
2023/07/18 04:29:06;;;;;;;11.90;3.88;;;13.80;81.20;;;;;;4912879;29;20487;-83
2023/07/18 04:31:31;;;;;;;8.57;3.58;;;13.80;81.10;;;;;;4919906;28;20028;-82
2023/07/18 04:33:57;;;;;;;10.65;4.13;;;13.90;81.20;;;;;;4907975;29;20385;-83
2023/07/18 04:36:24;;;;;;;10.48;3.85;;;13.90;81.00;;;;;;4908745;29;20396;-83
2023/07/18 04:38:50;;;;;;;9.20;3.58;;;13.90;81.00;;;;;;4911054;29;20557;-84
2023/07/18 04:41:15;;;;;;;7.68;3.58;;;13.90;81.00;;;;;;4917816;28;20107;-83
2023/07/18 04:43:41;;;;;;;9.63;4.03;;;14.00;81.00;;;;;;4927620;29;20032;-87
2023/07/18 04:46:08;;;;;;;12.95;4.45;;;14.10;80.90;;;;;;4939064;29;20043;-87
2023/07/18 04:48:34;;;;;;;8.48;3.65;;;14.10;80.80;;;;;;4936228;29;20028;-87
2023/07/18 04:51:01;;;;;;;11.00;4.10;;;14.10;80.70;;;;;;4929629;28;20453;-83
2023/07/18 04:53:28;;;;;;;12.43;4.32;;;14.10;80.70;;;;;;4916000;29;20017;-82
2023/07/18 04:55:55;;;;;;;14.43;4.65;;;14.20;80.80;;;;;;4903532;29;20040;-83
2023/07/18 04:58:24;;;;;;;13.02;4.00;;;14.20;80.60;;;;;;4904960;29;20365;-83
2023/07/18 05:00:51;;;;;;;12.10;4.05;;;14.20;80.70;;;;;;4922410;28;20055;-84
2023/07/18 05:03:17;;;;;;;13.32;4.45;;;14.20;80.50;;;;;;4914645;29;20095;-83
2023/07/18 05:05:43;;;;;;;11.52;4.10;;;14.30;80.90;;;;;;4909404;29;20444;-84
2023/07/18 05:08:09;;;;;;;13.45;4.53;;;14.30;80.90;;;;;;4912540;29;20085;-85
2023/07/18 05:10:35;;;;;;;7.55;3.53;;;14.40;80.80;;;;;;4912323;28;20036;-83
2023/07/18 05:13:00;;;;;;;13.57;4.45;;;14.40;80.80;;;;;;4911089;29;20032;-84
2023/07/18 05:15:26;;;;;;;10.02;4.18;;;14.50;80.60;;;;;;4913179;28;20036;-83
2023/07/18 05:17:52;;;;;;;11.50;4.65;;;14.50;80.80;;;;;;4912936;29;20372;-83
2023/07/18 05:20:19;;;;;;;13.45;5.15;;;14.60;80.90;;;;;;4911391;28;20100;-82
2023/07/18 05:22:45;;;;;;;12.48;4.10;;;14.60;80.40;;;;;;4916385;29;20035;-82
2023/07/18 05:25:13;;;;;;;14.18;4.72;;;14.60;80.70;;;;;;4911195;28;20087;-81
2023/07/18 05:27:39;;;;;;;9.55;4.22;;;14.60;80.80;;;;;;4914665;29;20027;-81
2023/07/18 05:30:10;;;;;;;9.23;3.90;;;15.40;80.90;;;;;;4916288;28;20488;-84
2023/07/18 05:32:36;;;;;;;10.98;3.67;;;17.10;75.20;;;;;;4912723;29;20262;-83
2023/07/18 05:35:02;;;;;;;9.75;3.55;;;19.10;69.20;;;;;;4916394;28;20429;-82
2023/07/18 05:37:29;;;;;;;8.13;2.97;;;20.40;63.30;;;;;;4910897;29;20413;-82
2023/07/18 05:39:55;;;;;;;8.15;2.83;;;21.50;58.40;;;;;;4918572;29;20032;-83
2023/07/18 05:42:21;;;;;;;11.07;3.15;;;22.10;55.90;;;;;;4907828;29;20481;-83
2023/07/18 05:44:47;;;;;;;10.32;3.30;;;22.60;54.60;;;;;;4917500;29;20049;-82
2023/07/18 05:47:13;;;;;;;8.35;2.85;;;22.80;55.10;;;;;;4914534;28;20392;-82
2023/07/18 05:49:39;;;;;;;8.55;2.90;;;23.30;52.10;;;;;;4918458;29;20044;-81
2023/07/18 05:52:05;;;;;;;15.60;3.10;;;22.90;53.20;;;;;;4915834;28;20042;-84
2023/07/18 05:54:30;;;;;;;10.88;2.92;;;23.00;52.30;;;;;;4916172;29;20034;-83
2023/07/18 05:56:59;;;;;;;10.02;2.95;;;22.90;53.00;;;;;;4916136;29;20063;-84
2023/07/18 05:59:26;;;;;;;10.55;2.65;;;22.80;54.20;;;;;;4916132;29;20040;-82
2023/07/18 06:01:52;;;;;;;9.73;3.10;;;22.20;54.70;;;;;;4909646;28;20036;-83
2023/07/18 06:04:18;;;;;;;10.48;3.22;;;21.30;57.30;;;;;;4912418;29;20024;-82
2023/07/18 06:06:44;;;;;;;13.10;3.95;;;20.10;60.00;;;;;;4916796;28;20123;-85
2023/07/18 06:09:11;;;;;;;9.75;3.03;;;19.20;64.00;;;;;;4907617;29;20020;-84
2023/07/18 06:11:37;;;;;;;11.73;3.50;;;18.70;66.20;;;;;;4912611;28;20075;-83
2023/07/18 06:14:05;;;;;;;8.98;3.30;;;18.60;66.60;;;;;;4909480;29;20543;-86
2023/07/18 06:16:31;;;;;;;8.63;3.15;;;18.60;67.20;;;;;;4905872;29;20115;-83
2023/07/18 06:18:57;;;;;;;12.25;3.80;;;18.10;68.70;;;;;;4912307;29;20031;-81
2023/07/18 06:21:26;;;;;;;10.57;3.33;;;18.10;69.30;;;;;;4907446;29;20040;-82
2023/07/18 06:23:52;;;;;;;8.70;3.63;;;18.00;69.80;;;;;;4902451;29;20053;-82
2023/07/18 06:26:18;;;;;;;9.45;3.35;;;18.00;69.50;;;;;;4913012;28;20036;-82
2023/07/18 06:28:44;;;;;;;13.63;3.97;;;17.90;70.70;;;;;;4909886;29;20042;-83
2023/07/18 06:31:10;;;;;;;10.88;3.45;;;17.80;71.10;;;;;;4905804;29;20043;-83
2023/07/18 06:33:37;;;;;;;12.02;3.40;;;17.90;71.60;;;;;;4903511;29;20039;-84
2023/07/18 06:36:03;;;;;;;9.88;3.78;;;18.00;71.40;;;;;;4915108;29;20039;-84
2023/07/18 06:38:29;;;;;;;12.63;4.15;;;18.10;70.70;;;;;;4905258;29;20052;-84
2023/07/18 06:40:55;;;;;;;12.73;4.47;;;18.10;70.50;;;;;;4906291;29;20568;-83
2023/07/18 06:43:21;;;;;;;10.90;4.90;;;18.20;70.30;;;;;;4911516;29;20531;-82
2023/07/18 06:45:47;;;;;;;14.23;4.55;;;18.30;69.90;;;;;;4910656;29;20081;-86
2023/07/18 06:48:16;;;;;;;11.45;4.72;;;18.40;70.10;;;;;;4899107;29;20052;-82
2023/07/18 06:50:47;;;;;;;11.75;5.07;;;18.50;69.30;;;;;;4904951;29;20043;-83
2023/07/18 06:53:21;;;;;;;15.57;6.10;;;18.70;68.80;;;;;;4907072;29;20127;-78
2023/07/18 06:55:48;;;;;;;14.80;5.28;;;18.90;67.90;;;;;;4907923;29;20051;-79
2023/07/18 06:58:15;;;;;;;12.07;5.55;;;18.90;68.60;;;;;;4910245;29;20028;-78
2023/07/18 07:00:41;;;;;;;12.48;5.00;;;19.10;67.30;;;;;;4913425;29;20055;-78
2023/07/18 07:03:08;;;;;;;12.85;6.22;;;19.10;67.00;;;;;;4913117;29;20035;-79
2023/07/18 07:05:42;;;;;;;12.73;5.03;;;19.20;67.30;;;;;;4911633;28;20062;-79
2023/07/18 07:08:09;;;;;;;12.88;4.95;;;19.30;66.40;;;;;;4908924;29;20038;-78
2023/07/18 07:10:39;;;;;;;11.05;4.43;;;19.30;65.90;;;;;;4917600;28;20054;-81
2023/07/18 07:13:05;;;;;;;10.73;4.90;;;19.50;66.30;;;;;;4903525;29;20106;-80
2023/07/18 07:15:32;;;;;;;13.80;4.63;;;19.60;65.40;;;;;;4914387;29;20098;-80
2023/07/18 07:17:58;;;;;;;10.85;4.93;;;19.70;65.60;;;;;;4910902;29;20039;-80
2023/07/18 07:20:25;;;;;;;10.48;4.85;;;19.90;64.60;;;;;;4907816;28;20044;-79
2023/07/18 07:22:53;;;;;;;10.98;4.38;;;20.00;64.00;;;;;;4911913;29;20028;-78
2023/07/18 07:25:19;;;;;;;10.68;4.90;;;20.20;64.90;;;;;;4906071;29;20063;-79
2023/07/18 07:27:46;;;;;;;11.05;4.78;;;20.30;64.10;;;;;;4911532;29;20039;-79
2023/07/18 07:30:16;;;;;;;8.02;3.75;;;20.30;64.10;;;;;;4901735;28;20060;-81
2023/07/18 07:32:47;;;;;;;14.68;4.88;;;20.40;64.00;;;;;;4907343;29;20103;-78
2023/07/18 07:35:14;;;;;;;11.00;4.95;;;20.60;62.70;;;;;;4902937;29;20063;-81
2023/07/18 07:37:40;;;;;;;11.77;4.88;;;20.70;62.50;;;;;;4910693;29;20032;-80
2023/07/18 07:40:09;;;;;;;14.13;4.95;;;20.70;63.20;;;;;;4904751;28;20024;-81
2023/07/18 07:42:37;;;;;;;11.20;4.25;;;20.70;62.60;;;;;;4907501;29;20028;-79
2023/07/18 07:45:03;;;;;;;8.90;3.78;;;20.60;62.70;;;;;;4905869;29;20481;-79
2023/07/18 07:47:30;;;;;;;10.10;3.78;;;20.60;63.10;;;;;;4901445;29;20024;-81
2023/07/18 07:49:55;;;;;;;9.10;2.88;;;20.40;63.20;;;;;;4907786;29;20051;-80
2023/07/18 07:52:21;;;;;;;8.07;3.17;;;20.50;63.00;;;;;;4891092;29;20094;-81
2023/07/18 07:54:48;;;;;;;8.38;2.80;;;20.30;63.00;;;;;;4898528;29;20043;-80
2023/07/18 07:57:14;;;;;;;8.23;3.15;;;20.40;63.30;;;;;;4900864;28;20036;-80
2023/07/18 07:59:40;;;;;;;8.93;3.22;;;20.50;63.30;;;;;;4894847;29;20429;-81
2023/07/18 08:02:06;;;;;;;11.60;2.92;;;20.70;62.90;;;;;;4888306;29;20119;-81
2023/07/18 08:04:32;;;;;;;12.77;3.30;;;20.90;62.00;;;;;;4890599;29;20639;-81
2023/07/18 08:06:58;;;;;;;9.80;2.70;;;21.10;60.70;;;;;;4898305;29;20520;-80
2023/07/18 08:09:23;;;;;;;7.38;2.15;;;21.10;61.90;;;;;;4884561;29;20429;-81
2023/07/18 08:11:49;;;;;;;10.13;2.88;;;21.10;60.70;;;;;;4893302;29;20059;-81
2023/07/18 08:14:17;;;;;;;7.95;2.47;;;21.20;60.30;;;;;;4907529;29;20028;-83
2023/07/18 08:16:42;;;;;;;8.20;2.53;;;21.20;60.80;;;;;;4898060;29;20126;-82
2023/07/18 08:19:09;;;;;;;11.43;2.97;;;21.10;60.00;;;;;;4886661;29;20589;-81
2023/07/18 08:21:35;;;;;;;7.72;2.33;;;21.00;59.40;;;;;;4896020;29;20055;-82
2023/07/18 08:24:01;;;;;;;9.85;2.38;;;21.00;59.70;;;;;;4897473;29;20385;-81
2023/07/18 08:26:26;;;;;;;9.80;2.58;;;21.00;59.70;;;;;;4893930;29;20470;-80
2023/07/18 08:28:52;;;;;;;9.82;2.33;;;20.90;59.80;;;;;;4890396;29;20036;-81
2023/07/18 08:31:19;;;;;;;7.93;1.83;;;20.80;60.00;;;;;;4893781;28;20113;-81
2023/07/18 08:33:45;;;;;;;9.13;2.20;;;20.80;61.10;;;;;;4895934;29;20035;-81
2023/07/18 08:36:10;;;;;;;7.85;2.40;;;21.00;60.40;;;;;;4898013;28;20062;-79
2023/07/18 08:38:37;;;;;;;8.38;2.10;;;21.40;59.20;;;;;;4894269;29;20052;-80
2023/07/18 08:41:03;;;;;;;5.53;1.92;;;21.60;57.70;;;;;;4906420;28;20048;-78
2023/07/18 08:43:31;;;;;;;8.70;2.10;;;22.00;56.10;;;;;;4916700;29;20035;-79
2023/07/18 08:45:57;;;;;;;10.77;2.25;;;22.10;55.30;;;;;;4909608;28;20044;-80
2023/07/18 08:48:24;;;;;;;7.55;1.85;;;22.50;55.90;;;;;;4912670;29;20074;-79
2023/07/18 08:50:52;;;;;;;8.05;1.77;;;22.60;53.90;;;;;;4913804;28;20040;-79
2023/07/18 08:53:18;;;;;;;4.55;1.48;;;22.60;51.60;;;;;;4906031;29;20032;-80
2023/07/18 08:55:44;;;;;;;5.90;1.70;;;22.60;52.00;;;;;;4916170;28;20035;-80
2023/07/18 08:58:10;;;;;;;5.82;1.63;;;22.40;53.80;;;;;;4910586;29;20042;-80
2023/07/18 09:00:35;;;;;;;7.10;1.95;;;22.10;53.60;;;;;;4914646;28;20037;-80
2023/07/18 09:03:01;;;;;;;5.38;1.40;;;22.00;53.00;;;;;;4915797;29;20049;-80
2023/07/18 09:05:38;;;;;;;7.20;1.60;;;22.00;53.00;;;;;;4912690;29;20067;-79
2023/07/18 09:08:05;;;;;;;3.58;1.40;;;21.90;53.90;;;;;;4904125;29;20045;-80
2023/07/18 09:10:32;;;;;;;8.25;1.73;;;21.80;52.80;;;;;;4911506;28;20123;-79
2023/07/18 09:13:05;;;;;;;5.00;1.80;;;21.80;53.20;;;;;;4906079;29;20080;-79
2023/07/18 09:15:36;;;;;;;5.78;1.55;;;21.80;54.20;;;;;;4912496;29;20068;-79
2023/07/18 09:18:06;;;;;;;5.55;1.65;;;22.00;54.40;;;;;;4908461;29;20024;-79
2023/07/18 09:20:33;;;;;;;7.10;1.80;;;22.10;53.80;;;;;;4916438;29;20050;-79
2023/07/18 09:23:03;;;;;;;7.32;1.80;;;22.10;52.50;;;;;;4909022;29;20497;-79
2023/07/18 09:25:29;;;;;;;7.72;2.42;;;22.30;52.70;;;;;;4913602;28;20040;-80
2023/07/18 09:27:56;;;;;;;7.22;1.75;;;22.60;52.40;;;;;;4904477;29;20036;-79
2023/07/18 09:30:23;;;;;;;6.15;1.58;;;23.00;51.60;;;;;;4906078;29;20582;-79
2023/07/18 09:32:53;;;;;;;6.47;1.85;;;23.30;50.20;;;;;;4907283;29;20028;-79
2023/07/18 09:35:19;;;;;;;3.78;1.58;;;23.50;48.40;;;;;;4900031;29;20040;-79
2023/07/18 09:37:46;;;;;;;5.65;1.50;;;23.60;47.00;;;;;;4904561;29;20062;-79
2023/07/18 09:40:17;;;;;;;5.22;1.35;;;23.70;45.40;;;;;;4904729;28;20465;-80
2023/07/18 09:42:47;;;;;;;5.53;1.42;;;23.90;43.30;;;;;;4912656;29;20024;-80
2023/07/18 09:45:14;;;;;;;6.40;1.58;;;24.00;44.20;;;;;;4906899;29;20075;-80
2023/07/18 09:47:41;;;;;;;4.20;1.35;;;24.20;44.50;;;;;;4906586;29;20597;-80
2023/07/18 09:50:09;;;;;;;4.88;1.50;;;24.50;43.00;;;;;;4909900;28;20043;-80
2023/07/18 09:52:49;;;;;;;8.57;1.77;;;24.50;44.10;;;;;;4908906;29;20091;-79
2023/07/18 09:55:21;;;;;;;7.07;1.50;;;24.50;44.90;;;;;;4901160;28;20147;-79
2023/07/18 09:57:49;;;;;;;7.28;1.50;;;24.50;45.30;;;;;;4912082;29;20042;-80
2023/07/18 10:00:15;;;;;;;5.40;1.35;;;24.50;43.50;;;;;;4903397;28;20083;-80
2023/07/18 10:02:42;;;;;;;7.05;1.60;;;24.70;44.80;;;;;;4899820;29;20388;-81
2023/07/18 10:05:14;;;;;;;4.28;1.33;;;24.40;44.20;;;;;;4907113;28;20021;-80
2023/07/18 10:07:41;;;;;;;4.80;1.20;;;24.10;44.90;;;;;;4907015;29;20040;-79
2023/07/18 10:10:08;;;;;;;4.03;1.55;;;24.20;43.40;;;;;;4909614;29;20036;-79
2023/07/18 10:12:40;;;;;;;4.25;1.35;;;24.10;42.90;;;;;;4909889;29;20040;-80
2023/07/18 10:15:05;;;;;;;4.47;1.60;;;24.30;43.90;;;;;;4912466;28;20102;-79
2023/07/18 10:17:31;;;;;;;4.65;1.70;;;24.50;43.90;;;;;;4911591;29;20127;-80
2023/07/18 10:19:57;;;;;;;5.43;1.50;;;24.50;43.90;;;;;;4905498;28;20062;-80
2023/07/18 10:22:32;;;;;;;5.22;1.50;;;24.40;43.90;;;;;;4899730;29;20119;-80
2023/07/18 10:25:00;;;;;;;5.82;1.63;;;24.80;42.80;;;;;;4908449;29;20024;-80
2023/07/18 10:27:43;;;;;;;3.90;1.30;;;25.20;40.90;;;;;;4910940;29;20187;-80
2023/07/18 10:30:15;;;;;;;4.05;1.50;;;25.30;41.00;;;;;;4914089;28;20063;-79
2023/07/18 10:32:43;;;;;;;4.15;1.67;;;25.60;39.80;;;;;;4906618;29;20481;-80
2023/07/18 10:35:15;;;;;;;5.45;1.60;;;25.60;40.00;;;;;;4915111;28;20400;-80
2023/07/18 10:37:50;;;;;;;4.95;1.25;;;25.60;39.60;;;;;;4911216;29;20112;-80
2023/07/18 10:40:40;;;;;;;4.22;1.55;;;25.60;39.00;;;;;;4931886;29;20123;-80
2023/07/18 10:43:11;;;;;;;4.03;1.50;;;25.70;39.40;;;;;;4937582;29;20048;-80
2023/07/18 10:45:41;;;;;;;4.05;1.52;;;25.80;40.30;;;;;;4920779;28;20047;-79
2023/07/18 10:48:17;;;;;;;5.70;1.42;;;26.10;39.40;;;;;;4915762;29;20032;-79
2023/07/18 10:50:45;;;;;;;5.07;1.50;;;26.20;39.60;;;;;;4910868;29;20253;-81
2023/07/18 10:53:18;;;;;;;4.35;1.63;;;26.10;38.70;;;;;;4904604;29;20024;-79
2023/07/18 10:55:47;;;;;;;6.80;1.50;;;26.10;40.00;;;;;;4915114;29;20078;-80
2023/07/18 10:58:21;;;;;;;6.47;1.80;;;26.40;39.40;;;;;;4906131;29;20397;-80
2023/07/18 11:00:48;;;;;;;6.15;1.40;;;26.50;39.60;;;;;;4898863;29;20394;-79
2023/07/18 11:03:22;;;;;;;4.70;1.50;;;26.60;39.00;;;;;;4909813;29;20075;-79
2023/07/18 11:05:52;;;;;;;3.78;1.42;;;26.50;37.90;;;;;;4902032;28;20068;-80
2023/07/18 11:08:29;;;;;;;6.93;1.60;;;26.20;39.50;;;;;;4902033;29;20032;-79
2023/07/18 11:10:59;;;;;;;5.68;1.42;;;26.10;38.70;;;;;;4905551;29;20479;-81
2023/07/18 11:13:36;;;;;;;7.22;1.55;;;26.30;39.20;;;;;;4916908;29;20064;-81
2023/07/18 11:16:08;;;;;;;5.13;1.63;;;26.30;39.50;;;;;;4899900;29;20047;-81
2023/07/18 11:18:35;;;;;;;3.70;1.42;;;26.40;39.20;;;;;;4914998;29;20028;-80
2023/07/18 11:21:05;;;;;;;5.15;1.15;;;26.70;38.30;;;;;;4905725;29;20037;-81
2023/07/18 11:23:32;;;;;;;7.68;1.50;;;26.60;37.80;;;;;;4900037;29;20085;-81
2023/07/18 11:25:58;;;;;;;6.40;1.80;;;26.50;39.30;;;;;;4903477;29;20028;-82
2023/07/18 11:28:33;;;;;;;4.93;1.70;;;26.70;37.70;;;;;;4894802;29;20487;-81
2023/07/18 11:30:59;;;;;;;4.43;1.50;;;27.00;37.00;;;;;;4908350;28;20534;-81
2023/07/18 11:33:31;;;;;;;5.32;1.85;;;27.10;36.60;;;;;;4901363;29;20344;-81
2023/07/18 11:35:57;;;;;;;5.05;1.42;;;27.10;37.60;;;;;;4908989;28;20620;-81
2023/07/18 11:38:27;;;;;;;6.90;1.75;;;26.90;37.50;;;;;;4901818;29;20131;-80
2023/07/18 11:40:53;;;;;;;6.15;1.75;;;27.00;37.30;;;;;;4894820;29;20087;-80
2023/07/18 11:43:19;;;;;;;6.32;1.52;;;26.80;37.00;;;;;;4902870;29;20031;-79
2023/07/18 11:45:46;;;;;;;5.45;2.08;;;26.90;38.20;;;;;;4897060;29;20064;-80
2023/07/18 11:48:15;;;;;;;5.95;1.80;;;27.10;36.10;;;;;;4897799;29;20454;-81
2023/07/18 11:50:45;;;;;;;3.95;1.65;;;27.00;38.00;;;;;;4902975;29;20516;-80
2023/07/18 11:53:12;;;;;;;7.30;1.88;;;26.70;37.90;;;;;;4905370;29;20028;-79
2023/07/18 11:55:37;;;;;;;3.83;1.42;;;27.00;36.40;;;;;;4905925;29;20445;-82
2023/07/18 11:58:07;;;;;;;5.90;1.60;;;27.30;36.50;;;;;;4899156;29;20028;-80
2023/07/18 12:00:36;;;;;;;4.03;1.75;;;27.50;36.10;;;;;;4912753;28;20126;-79
2023/07/18 12:03:02;;;;;;;7.57;2.13;;;27.60;35.40;;;;;;4909725;29;20034;-80
2023/07/18 12:05:28;;;;;;;5.25;1.52;;;27.70;35.20;;;;;;4910086;29;20108;-80
2023/07/18 12:07:55;;;;;;;5.53;1.67;;;27.60;35.80;;;;;;4911608;29;20036;-80
2023/07/18 12:10:21;;;;;;;6.65;1.83;;;27.60;35.90;;;;;;4902985;29;20081;-82
2023/07/18 12:12:47;;;;;;;6.15;2.10;;;27.60;35.70;;;;;;4897789;29;20028;-82
2023/07/18 12:15:13;;;;;;;7.25;1.92;;;27.70;35.40;;;;;;4904589;28;20038;-81
2023/07/18 12:17:39;;;;;;;6.90;1.80;;;27.30;35.40;;;;;;4900677;29;20035;-80
2023/07/18 12:20:07;;;;;;;5.60;1.60;;;27.30;35.90;;;;;;4906963;28;20032;-82
2023/07/18 12:22:33;;;;;;;6.00;1.73;;;27.40;35.30;;;;;;4903389;29;20028;-81
2023/07/18 12:25:01;;;;;;;5.45;1.70;;;27.30;35.70;;;;;;4896515;29;20489;-82
2023/07/18 12:27:27;;;;;;;7.78;2.25;;;27.40;36.50;;;;;;4924448;29;20023;-81
2023/07/18 12:29:53;;;;;;;6.18;1.73;;;27.60;37.60;;;;;;4906562;29;20028;-81
2023/07/18 12:32:19;;;;;;;7.93;1.95;;;27.80;35.80;;;;;;4906970;29;20059;-82
2023/07/18 12:34:44;;;;;;;6.45;1.85;;;28.00;36.20;;;;;;4907005;29;20100;-81
2023/07/18 12:37:10;;;;;;;6.47;1.75;;;28.10;36.60;;;;;;4912106;28;20036;-81
2023/07/18 12:39:36;;;;;;;5.68;1.88;;;27.50;36.50;;;;;;4904053;29;20044;-83
2023/07/18 12:42:02;;;;;;;6.15;1.90;;;27.30;35.70;;;;;;4907537;29;20125;-80
2023/07/18 12:44:39;;;;;;;5.53;1.92;;;27.00;36.60;;;;;;4910513;29;20604;-80